createdAt,value
2017-10-17T00:00:26.721Z,60.40
2017-10-17T00:03:52.379Z,60.40
2017-10-17T00:07:17.742Z,60.40
2017-10-17T00:10:43.287Z,60.40
2017-10-17T00:14:09.574Z,60.40
2017-10-17T00:17:36.014Z,61.20
2017-10-17T00:21:02.015Z,60.40
2017-10-17T00:24:27.879Z,60.50
2017-10-17T00:27:54.261Z,60.50
2017-10-17T00:31:23.198Z,60.40
2017-10-17T00:34:52.574Z,60.40
2017-10-17T00:38:19.533Z,60.40
2017-10-17T00:41:46.502Z,60.00
2017-10-17T00:45:12.407Z,60.50
2017-10-17T00:48:37.982Z,60.50
2017-10-17T00:52:03.854Z,60.00
2017-10-17T00:55:34.379Z,60.60
2017-10-17T00:59:00.114Z,60.50
2017-10-17T01:02:26.052Z,60.40
2017-10-17T01:05:52.502Z,60.40
2017-10-17T01:09:19.144Z,60.40
2017-10-17T01:12:44.636Z,60.40
2017-10-17T01:16:11.317Z,60.50
2017-10-17T01:19:36.983Z,60.40
2017-10-17T01:23:02.875Z,60.50
2017-10-17T01:26:33.178Z,60.40
2017-10-17T01:29:59.621Z,60.50
2017-10-17T01:33:25.390Z,60.40
2017-10-17T01:36:51.214Z,60.50
2017-10-17T01:40:18.401Z,61.20
2017-10-17T01:43:46.782Z,60.40
2017-10-17T01:47:14.368Z,60.60
2017-10-17T01:50:40.597Z,60.40
2017-10-17T01:54:06.682Z,60.50
2017-10-17T01:57:34.723Z,60.50
2017-10-17T02:01:03.271Z,60.50
2017-10-17T02:04:29.560Z,60.50
2017-10-17T02:07:57.461Z,60.50
2017-10-17T02:11:23.278Z,60.50
2017-10-17T02:14:48.985Z,60.50
2017-10-17T02:18:15.744Z,60.60
2017-10-17T02:21:41.269Z,60.50
2017-10-17T02:25:07.361Z,60.50
2017-10-17T02:28:33.897Z,60.50
2017-10-17T02:32:00.929Z,60.50
2017-10-17T02:35:26.297Z,60.50
2017-10-17T02:38:53.134Z,60.50
2017-10-17T02:42:19.261Z,60.50
2017-10-17T02:45:45.032Z,60.50
2017-10-17T02:49:10.854Z,60.50
2017-10-17T02:52:37.375Z,60.60
2017-10-17T02:56:04.700Z,60.60
2017-10-17T02:59:32.069Z,60.60
2017-10-17T03:02:57.576Z,60.50
2017-10-17T03:06:24.468Z,60.60
2017-10-17T03:09:50.156Z,60.50
2017-10-17T03:13:16.121Z,60.50
2017-10-17T03:16:41.668Z,60.60
2017-10-17T03:20:07.318Z,60.40
2017-10-17T03:23:33.807Z,60.50
2017-10-17T03:26:59.957Z,60.50
2017-10-17T03:30:25.910Z,60.50
2017-10-17T03:33:52.689Z,60.60
2017-10-17T03:37:20.785Z,60.60
2017-10-17T03:40:47.247Z,60.60
2017-10-17T03:44:12.801Z,60.60
2017-10-17T03:47:38.635Z,60.50
2017-10-17T03:51:05.366Z,60.60
2017-10-17T03:54:30.911Z,60.60
2017-10-17T03:58:00.678Z,60.60
2017-10-17T04:01:26.194Z,60.60
2017-10-17T04:04:51.624Z,60.60
2017-10-17T04:08:17.876Z,60.20
2017-10-17T04:11:43.524Z,59.70
2017-10-17T04:15:09.463Z,59.40
2017-10-17T04:18:37.373Z,58.80
2017-10-17T04:22:03.930Z,57.80
2017-10-17T04:25:31.907Z,56.90
2017-10-17T04:28:59.631Z,56.90
2017-10-17T04:32:25.189Z,56.40
2017-10-17T04:35:51.721Z,56.10
2017-10-17T04:39:17.249Z,55.60
2017-10-17T04:42:51.597Z,55.10
2017-10-17T04:46:18.940Z,54.50
2017-10-17T04:49:48.300Z,54.00
2017-10-17T04:53:21.853Z,54.00
2017-10-17T04:56:47.404Z,53.80
2017-10-17T05:00:15.245Z,53.50
2017-10-17T05:03:53.775Z,53.10
2017-10-17T05:07:19.234Z,53.10
2017-10-17T05:10:49.096Z,53.00
2017-10-17T05:14:14.428Z,53.10
2017-10-17T05:17:39.937Z,52.80
2017-10-17T05:21:05.726Z,52.70
2017-10-17T05:24:32.207Z,52.70
2017-10-17T05:28:03.735Z,52.70
2017-10-17T05:31:30.219Z,52.70
2017-10-17T05:34:56.630Z,52.90
2017-10-17T05:38:23.785Z,52.90
2017-10-17T05:41:50.237Z,53.10
2017-10-17T05:45:15.946Z,53.20
2017-10-17T05:48:41.208Z,53.40
2017-10-17T05:52:09.081Z,53.50
2017-10-17T05:55:35.430Z,53.90
2017-10-17T05:59:04.376Z,53.90
2017-10-17T06:02:36.535Z,54.40
2017-10-17T06:06:02.015Z,54.40
2017-10-17T06:09:27.265Z,54.70
2017-10-17T06:12:52.428Z,54.90
2017-10-17T06:16:18.688Z,55.30
2017-10-17T06:19:44.308Z,55.50
2017-10-17T06:23:11.201Z,55.70
2017-10-17T06:26:38.285Z,56.10
2017-10-17T06:30:05.144Z,56.10
2017-10-17T06:33:30.598Z,56.30
2017-10-17T06:36:55.915Z,56.50
2017-10-17T06:40:26.302Z,56.80
2017-10-17T06:43:51.480Z,57.10
2017-10-17T06:47:17.115Z,57.10
2017-10-17T06:50:44.250Z,57.40
2017-10-17T06:54:09.828Z,57.50
2017-10-17T06:57:35.612Z,57.70
2017-10-17T07:04:43.549Z,58.00
2017-10-17T07:08:16.577Z,58.10
2017-10-17T07:11:43.205Z,58.20
2017-10-17T07:15:09.203Z,58.30
2017-10-17T07:18:35.533Z,59.00
2017-10-17T07:22:01.462Z,58.50
2017-10-17T07:25:28.717Z,58.60
2017-10-17T07:28:54.661Z,58.70
2017-10-17T07:32:20.817Z,59.00
2017-10-17T07:35:46.159Z,58.90
2017-10-17T07:39:20.282Z,59.10
2017-10-17T07:42:49.755Z,59.20
2017-10-17T07:46:15.697Z,59.30
2017-10-17T07:49:41.550Z,59.30
2017-10-17T07:53:15.362Z,59.30
2017-10-17T07:56:44.934Z,59.30
2017-10-17T08:00:14.754Z,59.30
2017-10-17T08:03:41.925Z,59.30
2017-10-17T08:07:07.978Z,59.30
2017-10-17T08:10:33.248Z,59.30
2017-10-17T08:14:00.118Z,59.30
2017-10-17T08:17:26.961Z,59.30
2017-10-17T08:20:52.716Z,59.30
2017-10-17T08:24:23.388Z,59.20
2017-10-17T08:27:48.498Z,59.30
2017-10-17T08:31:15.669Z,59.30
2017-10-17T08:35:00.223Z,59.30
2017-10-17T08:38:27.624Z,59.20
2017-10-17T08:41:53.002Z,59.20
2017-10-17T08:45:18.632Z,59.20
2017-10-17T08:48:48.190Z,59.10
2017-10-17T08:52:18.979Z,59.10
2017-10-17T08:55:44.535Z,59.10
2017-10-17T08:59:14.309Z,59.00
2017-10-17T09:02:39.454Z,59.00
2017-10-17T09:06:10.067Z,59.10
2017-10-17T09:09:35.277Z,59.00
2017-10-17T09:13:00.358Z,59.00
2017-10-17T09:16:26.666Z,59.00
2017-10-17T09:19:53.091Z,59.00
2017-10-17T09:23:20.361Z,59.10
2017-10-17T09:26:48.433Z,59.00
2017-10-17T09:30:15.038Z,59.00
2017-10-17T09:33:42.574Z,59.00
2017-10-17T09:37:08.369Z,59.00
2017-10-17T09:40:38.698Z,59.70
2017-10-17T09:44:05.041Z,59.20
2017-10-17T09:47:31.447Z,59.10
2017-10-17T09:50:58.530Z,59.10
2017-10-17T09:54:30.246Z,59.40
2017-10-17T09:57:55.453Z,59.80
2017-10-17T10:01:25.755Z,59.90
2017-10-17T10:04:51.134Z,60.00
2017-10-17T10:08:17.759Z,60.00
2017-10-17T10:11:44.508Z,60.10
2017-10-17T10:15:31.683Z,60.10
2017-10-17T10:18:58.773Z,60.00
2017-10-17T10:25:55.146Z,59.90
2017-10-17T10:29:21.344Z,59.80
2017-10-17T10:32:46.814Z,59.70
2017-10-17T10:36:15.655Z,59.60
2017-10-17T10:39:43.232Z,59.60
2017-10-17T10:43:14.739Z,59.50
2017-10-17T10:46:51.333Z,59.50
2017-10-17T10:50:17.971Z,59.40
2017-10-17T10:53:44.815Z,59.40
2017-10-17T10:57:10.155Z,59.40
2017-10-17T11:00:40.390Z,59.30
2017-10-17T11:04:06.742Z,59.30
2017-10-17T11:07:32.678Z,59.20
2017-10-17T11:11:03.622Z,59.20
2017-10-17T11:14:30.129Z,59.20
2017-10-17T11:17:56.153Z,59.10
2017-10-17T11:21:22.742Z,59.10
2017-10-17T11:24:50.401Z,59.10
2017-10-17T11:28:15.800Z,59.10
2017-10-17T11:31:42.032Z,59.00
2017-10-17T11:35:15.493Z,59.00
2017-10-17T11:38:41.276Z,59.00
2017-10-17T11:44:17.102Z,59.00
2017-10-17T11:47:42.281Z,59.00
2017-10-17T11:51:08.105Z,58.90
2017-10-17T11:54:33.237Z,58.80
2017-10-17T11:57:58.386Z,58.70
2017-10-17T12:01:28.266Z,58.70
2017-10-17T12:04:53.762Z,58.70
2017-10-17T12:08:30.310Z,58.70
2017-10-17T12:12:00.734Z,58.70
2017-10-17T12:15:26.745Z,58.70
2017-10-17T12:18:52.648Z,58.60
2017-10-17T12:22:20.392Z,58.60
2017-10-17T12:25:48.622Z,58.60
2017-10-17T12:29:13.808Z,58.60
2017-10-17T12:32:39.036Z,58.60
2017-10-17T12:36:06.417Z,58.50
2017-10-17T12:39:31.906Z,58.50
2017-10-17T12:42:57.194Z,58.50
2017-10-17T12:46:30.023Z,58.40
2017-10-17T12:49:55.375Z,58.50
2017-10-17T12:53:22.713Z,58.40
2017-10-17T12:56:52.483Z,58.40
2017-10-17T13:00:22.141Z,58.30
2017-10-17T13:03:47.533Z,58.30
2017-10-17T13:11:06.437Z,58.40
2017-10-17T13:14:32.069Z,58.40
2017-10-17T13:17:58.829Z,58.30
2017-10-17T13:21:26.598Z,58.30
2017-10-17T13:25:07.379Z,58.30
2017-10-17T13:28:32.956Z,58.30
2017-10-17T13:32:02.717Z,58.40
2017-10-17T13:35:28.857Z,58.40
2017-10-17T13:38:58.679Z,58.40
2017-10-17T13:45:54.767Z,58.30
2017-10-17T13:49:24.503Z,58.30
2017-10-17T13:52:50.664Z,58.30
2017-10-17T13:56:15.775Z,58.30
2017-10-17T13:59:42.669Z,58.30
2017-10-17T14:06:39.735Z,58.30
2017-10-17T14:10:05.678Z,58.20
2017-10-17T14:13:40.785Z,58.30
2017-10-17T14:17:12.331Z,58.30
2017-10-17T14:20:39.332Z,58.30
2017-10-17T14:24:13.669Z,58.30
2017-10-17T14:31:17.083Z,58.40
2017-10-17T14:34:46.606Z,58.40
2017-10-17T14:38:17.477Z,58.40
2017-10-17T14:41:43.908Z,58.40
2017-10-17T14:45:13.117Z,58.50
2017-10-17T14:48:38.709Z,58.50
2017-10-17T14:52:04.698Z,58.50
2017-10-17T14:55:30.380Z,58.40
2017-10-17T14:58:55.810Z,58.50
2017-10-17T15:02:21.351Z,58.50
2017-10-17T15:05:46.862Z,58.50
2017-10-17T15:09:24.270Z,58.50
2017-10-17T15:12:53.795Z,58.60
2017-10-17T15:19:52.147Z,58.90
2017-10-17T15:23:21.910Z,58.90
2017-10-17T15:26:47.267Z,59.30
2017-10-17T15:30:12.779Z,58.70
2017-10-17T15:51:17.742Z,59.20
2017-10-17T15:54:44.182Z,59.40
2017-10-17T15:58:13.925Z,59.40
2017-10-17T16:01:41.303Z,59.40
2017-10-17T16:05:06.454Z,59.60
2017-10-17T16:08:48.613Z,59.70
2017-10-17T16:12:20.658Z,59.80
2017-10-17T16:15:46.138Z,60.10
2017-10-17T16:19:11.889Z,60.20
2017-10-17T16:22:38.873Z,60.60
2017-10-17T16:26:12.859Z,60.50
2017-10-17T16:29:40.815Z,61.40
2017-10-17T16:33:15.396Z,61.40
2017-10-17T16:50:42.865Z,64.00
2017-10-17T16:54:08.332Z,64.10
2017-10-17T16:57:39.168Z,64.30
2017-10-17T17:01:05.865Z,64.30
2017-10-17T17:04:31.778Z,64.30
2017-10-17T17:07:58.075Z,64.90
2017-10-17T17:11:25.406Z,64.00
2017-10-17T17:15:05.823Z,63.50
2017-10-17T17:18:32.321Z,63.40
2017-10-17T17:21:57.835Z,63.40
2017-10-17T17:25:23.738Z,63.30
2017-10-17T17:28:49.604Z,63.20
2017-10-17T17:32:15.362Z,63.20
2017-10-17T17:35:41.213Z,63.20
2017-10-17T17:39:06.827Z,63.10
2017-10-17T17:42:32.634Z,63.00
2017-10-17T17:46:00.278Z,63.00
2017-10-17T17:49:28.234Z,63.00
2017-10-17T17:53:00.460Z,63.10
2017-10-17T17:56:26.358Z,63.50
2017-10-17T17:59:54.944Z,63.30
2017-10-17T18:03:23.949Z,63.50
2017-10-17T18:06:49.684Z,63.30
2017-10-17T18:10:15.650Z,63.80
2017-10-17T18:13:41.304Z,63.00
2017-10-17T18:17:07.509Z,63.00
2017-10-17T18:20:33.133Z,63.00
2017-10-17T18:23:58.691Z,63.40
2017-10-17T18:27:24.662Z,63.60
2017-10-17T18:30:50.385Z,63.60
2017-10-17T18:34:20.821Z,63.60
2017-10-17T18:37:47.921Z,63.70
2017-10-17T18:44:49.329Z,63.60
2017-10-17T18:48:16.260Z,63.60
2017-10-17T18:51:42.372Z,63.50
2017-10-17T18:55:08.003Z,63.40
2017-10-17T18:58:33.682Z,63.40
2017-10-17T19:02:08.556Z,63.30
2017-10-17T19:05:39.892Z,63.30
2017-10-17T19:09:06.074Z,63.30
2017-10-17T19:12:32.875Z,63.20
2017-10-17T19:15:58.429Z,63.20
2017-10-17T19:19:23.796Z,63.30
2017-10-17T19:22:49.901Z,63.00
2017-10-17T19:26:15.576Z,62.90
2017-10-17T19:29:41.187Z,62.80
2017-10-17T19:33:07.735Z,62.80
2017-10-17T19:36:33.971Z,62.70
2017-10-17T19:39:59.360Z,62.80
2017-10-17T19:43:25.768Z,62.50
2017-10-17T19:46:52.334Z,62.30
2017-10-17T19:50:19.650Z,62.40
2017-10-17T19:53:46.666Z,62.30
2017-10-17T19:57:12.130Z,62.40
2017-10-17T20:00:37.806Z,62.60
2017-10-17T20:04:05.729Z,62.70
2017-10-17T20:07:33.150Z,62.90
2017-10-17T20:11:04.458Z,62.90
2017-10-17T20:14:30.967Z,63.00
2017-10-17T20:17:56.774Z,62.90
2017-10-17T20:21:23.818Z,62.60
2017-10-17T20:24:49.378Z,62.50
2017-10-17T20:28:15.414Z,62.60
2017-10-17T20:31:40.924Z,62.70
2017-10-17T20:35:06.548Z,62.60
2017-10-17T20:38:33.734Z,62.60
2017-10-17T20:42:00.012Z,62.80
2017-10-17T20:45:25.469Z,62.60
2017-10-17T20:48:51.238Z,62.70
2017-10-17T20:52:16.798Z,62.70
2017-10-17T20:55:42.388Z,62.60
2017-10-17T20:59:08.095Z,62.70
2017-10-17T21:02:33.946Z,63.30
2017-10-17T21:05:59.437Z,62.60
2017-10-17T21:09:25.380Z,62.70
2017-10-17T21:12:50.904Z,62.60
2017-10-17T21:16:16.839Z,62.70
2017-10-17T21:19:42.678Z,62.70
2017-10-17T21:23:08.433Z,62.70
2017-10-17T21:26:35.393Z,62.70
2017-10-17T21:30:01.936Z,62.80
2017-10-17T21:33:27.359Z,62.80
2017-10-17T21:36:53.512Z,62.40
2017-10-17T21:40:19.813Z,62.40
2017-10-17T21:43:45.357Z,62.30
2017-10-17T21:47:12.009Z,62.20
2017-10-17T21:50:37.902Z,62.40
2017-10-17T21:54:03.386Z,62.40
2017-10-17T21:57:28.789Z,62.50
2017-10-17T22:01:03.239Z,62.60
2017-10-17T22:04:30.134Z,62.50
2017-10-17T22:07:56.055Z,62.50
2017-10-17T22:11:22.897Z,63.30
2017-10-17T22:14:48.325Z,62.60
2017-10-17T22:18:14.789Z,63.40
2017-10-17T22:21:40.404Z,62.70
2017-10-17T22:25:06.254Z,62.70
2017-10-17T22:28:32.141Z,62.60
2017-10-17T22:31:57.753Z,62.60
2017-10-17T22:35:23.259Z,62.70
2017-10-17T22:38:49.189Z,62.60
2017-10-17T22:42:14.717Z,62.70
2017-10-17T22:45:40.129Z,62.70
2017-10-17T22:49:06.006Z,62.60
2017-10-17T22:52:31.337Z,62.70
2017-10-17T22:55:56.734Z,62.60
2017-10-17T22:59:22.697Z,62.70
2017-10-17T23:02:48.173Z,62.60
2017-10-17T23:06:13.754Z,62.60
2017-10-17T23:09:39.461Z,62.70
2017-10-17T23:13:05.001Z,62.50
2017-10-17T23:16:30.880Z,62.50
2017-10-17T23:20:38.830Z,62.50
2017-10-17T23:24:04.368Z,62.50
2017-10-17T23:27:29.813Z,62.50
2017-10-17T23:30:56.461Z,62.50
2017-10-17T23:34:21.832Z,62.50
2017-10-17T23:37:48.274Z,62.40
2017-10-17T23:41:15.034Z,62.50
2017-10-17T23:44:40.976Z,62.50
2017-10-17T23:48:06.265Z,62.50
2017-10-17T23:51:34.687Z,62.50
2017-10-17T23:55:00.381Z,62.40
2017-10-17T23:58:26.113Z,62.40
